Time;durP1;ratioP1;P1;durP2;ratioP2;P2;SDS_P1;SDS_P2;PMS_P1;PMS_P2;Temp;Humidity;BMP_temperature;BMP_pressure;BME280_temperature;BME280_humidity;BME280_pressure;Samples;Min_cycle;Max_cycle;Signal;HPM_P1;HPM_P2
2022/07/30 00:08:51;;;;;;;7.18;2.08;;;28.40;39.60;;;;;;21263826;27;20047;-55
2022/07/30 00:18:52;;;;;;;6.80;1.92;;;28.10;40.20;;;;;;21262567;27;20039;-56
2022/07/30 00:28:54;;;;;;;5.57;2.08;;;28.00;40.50;;;;;;21261752;27;20058;-55
2022/07/30 00:38:55;;;;;;;5.20;2.10;;;27.90;40.70;;;;;;21242359;27;20169;-57
2022/07/30 00:48:57;;;;;;;4.93;2.17;;;27.80;40.70;;;;;;21260036;27;20100;-57
2022/07/30 00:58:58;;;;;;;4.97;2.17;;;27.90;40.60;;;;;;21259312;27;20096;-57
2022/07/30 01:09:00;;;;;;;4.50;1.95;;;27.80;40.90;;;;;;21258065;27;20047;-56
2022/07/30 01:29:32;;;;;;;3.28;1.70;;;27.60;41.40;;;;;;21257209;27;20103;-54
2022/07/30 01:39:50;;;;;;;3.90;2.10;;;27.20;42.00;;;;;;21231966;27;20055;-55
2022/07/30 01:50:14;;;;;;;2.97;1.70;;;27.10;42.30;;;;;;21240490;27;20058;-55
2022/07/30 02:00:33;;;;;;;3.55;1.73;;;26.90;42.80;;;;;;21255375;27;20055;-56
2022/07/30 02:11:06;;;;;;;2.90;1.90;;;26.70;43.00;;;;;;21253896;27;20047;-57
2022/07/30 02:21:18;;;;;;;5.72;2.17;;;26.80;43.10;;;;;;21234902;27;20055;-57
2022/07/30 02:31:31;;;;;;;3.92;1.88;;;26.70;43.30;;;;;;21252394;27;20425;-58
2022/07/30 02:41:55;;;;;;;6.03;1.88;;;26.60;43.70;;;;;;21251234;27;20039;-57
2022/07/30 02:52:07;;;;;;;4.00;2.27;;;26.50;43.90;;;;;;21250191;27;20057;-55
2022/07/30 03:02:12;;;;;;;2.88;1.90;;;26.50;44.00;;;;;;21249899;27;20456;-56
2022/07/30 03:12:18;;;;;;;5.70;2.30;;;26.40;44.30;;;;;;21249219;27;20383;-56
2022/07/30 03:22:25;;;;;;;6.57;2.30;;;26.40;44.40;;;;;;21248129;27;20055;-55
2022/07/30 03:32:31;;;;;;;4.30;2.20;;;26.30;44.70;;;;;;21247817;27;20046;-55
2022/07/30 03:42:36;;;;;;;4.03;2.38;;;26.20;45.10;;;;;;21247271;27;20051;-57
2022/07/30 03:52:39;;;;;;;3.67;2.60;;;26.20;45.10;;;;;;21246876;28;20056;-57
2022/07/30 04:02:45;;;;;;;6.00;2.40;;;26.10;45.30;;;;;;21246461;28;20122;-57
2022/07/30 04:12:47;;;;;;;4.43;2.53;;;26.10;45.40;;;;;;21246106;28;20053;-57
2022/07/30 04:22:50;;;;;;;5.15;2.22;;;25.90;46.00;;;;;;21246550;28;20130;-59
2022/07/30 04:32:51;;;;;;;4.35;2.22;;;26.00;45.90;;;;;;21245919;28;20466;-55
2022/07/30 04:42:53;;;;;;;;;;;26.00;45.70;;;;;;21245774;28;20503;-55
2022/07/30 04:52:55;;;;;;;7.70;3.27;;;26.00;45.80;;;;;;21259338;27;19919;-55
2022/07/30 05:02:59;;;;;;;3.92;2.58;;;25.80;46.20;;;;;;21260220;27;20129;-54
2022/07/30 05:13:01;;;;;;;6.53;3.25;;;25.60;46.60;;;;;;21259651;27;20043;-55
2022/07/30 05:23:03;;;;;;;5.68;2.63;;;25.70;46.70;;;;;;21258891;27;20051;-55
2022/07/30 05:33:05;;;;;;;4.13;2.50;;;25.60;46.90;;;;;;21257580;27;20058;-55
2022/07/30 05:43:07;;;;;;;3.92;2.90;;;25.60;47.00;;;;;;21256763;27;20083;-55
2022/07/30 05:53:10;;;;;;;7.30;3.38;;;25.60;47.30;;;;;;21238542;27;20083;-56
2022/07/30 06:03:11;;;;;;;;;;;25.60;47.50;;;;;;21255615;27;20130;-54
2022/07/30 06:13:13;;;;;;;4.22;2.40;;;25.40;48.00;;;;;;21235358;27;19956;-57
2022/07/30 06:23:14;;;;;;;10.53;3.13;;;25.40;48.30;;;;;;21252717;27;20047;-56
2022/07/30 06:33:16;;;;;;;5.70;3.03;;;25.50;48.30;;;;;;21252811;27;20471;-57
2022/07/30 06:43:19;;;;;;;6.15;2.70;;;25.50;48.50;;;;;;21251851;27;20525;-58
2022/07/30 06:53:20;;;;;;;6.07;2.85;;;25.80;48.20;;;;;;21251432;27;20441;-57
2022/07/30 07:03:22;;;;;;;6.13;3.15;;;26.40;46.90;;;;;;21250797;27;20101;-56
2022/07/30 07:13:24;;;;;;;6.60;2.95;;;26.90;46.10;;;;;;21249142;27;20051;-55
2022/07/30 07:23:26;;;;;;;5.18;2.83;;;27.20;45.40;;;;;;21250298;27;20399;-56
2022/07/30 07:33:27;;;;;;;8.35;3.58;;;27.60;44.70;;;;;;21249175;27;20066;-58
2022/07/30 07:43:30;;;;;;;6.60;3.78;;;27.90;44.80;;;;;;21247407;27;20050;-55
2022/07/30 07:53:32;;;;;;;5.55;3.28;;;28.40;44.00;;;;;;21247655;28;20051;-55
2022/07/30 08:03:33;;;;;;;5.38;3.20;;;28.40;44.60;;;;;;21246591;28;20043;-56
2022/07/30 08:13:35;;;;;;;6.22;3.28;;;28.80;44.40;;;;;;21246085;28;20104;-56
2022/07/30 08:23:36;;;;;;;7.65;4.18;;;29.20;43.80;;;;;;21253320;27;20043;-55
2022/07/30 08:33:38;;;;;;;4.93;3.40;;;29.40;44.20;;;;;;21242963;27;20047;-55
2022/07/30 08:43:40;;;;;;;9.23;4.50;;;29.50;44.00;;;;;;21261259;27;20046;-56
2022/07/30 08:53:43;;;;;;;8.95;4.75;;;29.70;43.70;;;;;;21241458;27;20521;-57
2022/07/30 09:03:44;;;;;;;7.18;4.32;;;29.90;44.30;;;;;;21261168;27;20475;-56
2022/07/30 09:13:47;;;;;;;8.95;4.78;;;30.10;45.00;;;;;;21241691;27;20050;-55
2022/07/30 09:24:10;;;;;;;6.95;5.07;;;30.30;44.90;;;;;;21258490;27;20039;-56
2022/07/30 09:34:28;;;;;;;8.18;5.05;;;30.60;44.80;;;;;;21258139;27;20472;-57
2022/07/30 09:44:30;;;;;;;6.22;4.60;;;30.60;45.00;;;;;;21256650;27;20047;-54
2022/07/30 09:54:49;;;;;;;11.77;4.95;;;30.70;44.60;;;;;;21257156;27;20063;-55
2022/07/30 10:04:50;;;;;;;8.15;5.00;;;30.80;44.40;;;;;;21255370;27;20537;-55
2022/07/30 10:14:53;;;;;;;9.98;4.80;;;30.90;44.20;;;;;;21253289;27;20406;-55
2022/07/30 10:24:55;;;;;;;8.68;4.82;;;31.10;43.80;;;;;;21234398;27;20045;-56
2022/07/30 10:34:58;;;;;;;6.35;4.75;;;31.10;43.90;;;;;;21251761;27;20055;-56
2022/07/30 10:45:38;;;;;;;9.15;5.47;;;31.30;43.60;;;;;;21251451;27;20058;-56
2022/07/30 10:55:39;;;;;;;7.87;4.70;;;31.50;43.20;;;;;;20906048;28;20572;-57
2022/07/30 11:05:42;;;;;;;7.13;5.35;;;31.60;43.10;;;;;;20904434;28;20049;-56
2022/07/30 11:15:56;;;;;;;9.15;4.40;;;31.90;42.00;;;;;;20904141;28;20053;-56
2022/07/30 11:25:57;;;;;;;8.45;4.65;;;32.10;41.50;;;;;;21082026;27;20115;-57
2022/07/30 11:36:11;;;;;;;7.00;4.45;;;32.30;40.30;;;;;;21248312;27;20518;-58
2022/07/30 11:46:21;;;;;;;7.40;4.07;;;32.30;39.30;;;;;;21247029;27;20078;-57
2022/07/30 11:56:22;;;;;;;7.50;5.10;;;32.60;39.00;;;;;;21252935;27;20039;-56
2022/07/30 12:06:24;;;;;;;6.68;4.55;;;32.60;39.20;;;;;;21264764;27;20678;-57
2022/07/30 12:16:27;;;;;;;8.25;5.13;;;33.10;38.80;;;;;;21263680;27;20043;-55
2022/07/30 12:26:31;;;;;;;7.60;4.85;;;33.40;38.40;;;;;;21263522;27;20517;-55
2022/07/30 12:36:34;;;;;;;9.60;5.68;;;33.50;38.20;;;;;;21261391;27;20070;-55
2022/07/30 12:46:40;;;;;;;8.23;4.80;;;33.60;38.10;;;;;;21261778;27;20105;-56
2022/07/30 12:57:04;;;;;;;9.55;4.75;;;33.80;36.00;;;;;;21260454;27;20062;-56
2022/07/30 13:07:09;;;;;;;9.93;4.63;;;34.00;35.60;;;;;;21259963;27;20575;-57
2022/07/30 13:17:10;;;;;;;7.93;4.53;;;34.20;35.10;;;;;;21240310;27;20040;-57
2022/07/30 13:27:15;;;;;;;7.40;4.35;;;34.50;34.20;;;;;;21241613;27;20096;-58
2022/07/30 13:37:17;;;;;;;7.00;3.90;;;34.70;33.90;;;;;;21239990;27;20039;-58
2022/07/30 13:47:19;;;;;;;7.13;3.60;;;35.00;31.50;;;;;;21258539;27;20087;-56
2022/07/30 13:57:21;;;;;;;8.85;3.60;;;35.30;29.60;;;;;;21255524;27;20125;-56
2022/07/30 14:07:23;;;;;;;6.88;3.85;;;35.80;28.90;;;;;;21255172;27;20043;-58
2022/07/30 14:17:24;;;;;;;10.75;3.60;;;35.70;29.00;;;;;;21253102;27;20100;-57
2022/07/30 14:27:26;;;;;;;9.00;4.10;;;35.70;28.50;;;;;;21253668;27;20058;-58
2022/07/30 14:37:27;;;;;;;5.88;3.38;;;35.70;28.10;;;;;;21252253;27;20471;-55
2022/07/30 14:47:29;;;;;;;7.75;2.72;;;36.10;25.50;;;;;;21252354;27;20158;-56
2022/07/30 14:57:31;;;;;;;9.40;3.42;;;36.10;25.40;;;;;;21249959;27;20043;-56
2022/07/30 15:07:32;;;;;;;8.82;2.80;;;36.10;26.70;;;;;;21249537;27;20047;-57
2022/07/30 15:17:36;;;;;;;8.10;3.35;;;36.10;25.40;;;;;;21249380;27;20113;-58
2022/07/30 15:27:38;;;;;;;6.80;3.05;;;36.30;25.20;;;;;;21248732;27;20396;-57
2022/07/30 15:37:39;;;;;;;7.55;3.28;;;36.40;25.50;;;;;;21247900;27;20066;-55
2022/07/30 15:47:41;;;;;;;8.93;3.08;;;36.40;25.60;;;;;;21229869;27;20079;-58
2022/07/30 15:57:43;;;;;;;9.48;3.10;;;36.10;26.00;;;;;;21228725;28;20039;-56
2022/07/30 16:07:44;;;;;;;10.95;3.75;;;36.20;26.30;;;;;;21247127;28;20103;-57
2022/07/30 16:17:46;;;;;;;10.63;3.97;;;36.40;25.90;;;;;;21246604;28;20066;-57
2022/07/30 16:27:48;;;;;;;31.45;6.93;;;36.40;25.50;;;;;;21245786;28;20117;-55
2022/07/30 16:37:49;;;;;;;15.15;4.00;;;33.90;41.90;;;;;;21226647;28;20499;-57
2022/07/30 16:47:51;;;;;;;15.60;5.20;;;31.00;45.40;;;;;;21257276;27;20130;-56
2022/07/30 16:57:53;;;;;;;10.50;3.35;;;30.00;50.50;;;;;;21241027;27;20043;-55
2022/07/30 17:07:54;;;;;;;11.88;3.75;;;29.90;48.70;;;;;;21259516;27;20157;-56
2022/07/30 17:17:56;;;;;;;8.02;3.40;;;29.60;48.00;;;;;;21257369;27;20047;-56
2022/07/30 17:27:58;;;;;;;11.77;4.15;;;29.00;49.30;;;;;;21258614;27;20430;-56
2022/07/30 17:38:00;;;;;;;8.05;2.95;;;28.70;49.60;;;;;;21256738;27;20094;-55
2022/07/30 17:48:02;;;;;;;9.80;3.67;;;28.70;46.50;;;;;;21256123;27;20470;-56
2022/07/30 17:58:05;;;;;;;6.88;2.85;;;28.90;44.10;;;;;;21255212;27;20054;-56
2022/07/30 18:08:06;;;;;;;10.20;3.20;;;29.10;40.50;;;;;;21254257;27;20135;-57
2022/07/30 18:18:09;;;;;;;7.03;2.92;;;29.40;40.40;;;;;;21252965;27;20129;-56
2022/07/30 18:28:10;;;;;;;13.00;3.90;;;29.30;41.10;;;;;;21253549;27;20491;-55
2022/07/30 18:38:13;;;;;;;9.93;3.38;;;29.10;42.40;;;;;;21251641;27;20054;-58
2022/07/30 18:48:15;;;;;;;8.27;3.17;;;29.10;42.10;;;;;;21250963;27;20163;-58
2022/07/30 18:58:17;;;;;;;6.35;3.17;;;29.10;41.70;;;;;;21250184;27;20047;-56
2022/07/30 19:08:18;;;;;;;8.07;2.67;;;29.10;41.20;;;;;;21249157;27;20047;-58
2022/07/30 19:18:20;;;;;;;6.25;2.67;;;29.10;39.70;;;;;;21248185;27;20177;-56
2022/07/30 19:28:22;;;;;;;5.20;2.50;;;29.20;39.40;;;;;;21230074;27;20054;-56
2022/07/30 19:38:23;;;;;;;8.13;2.83;;;29.30;38.70;;;;;;21247386;27;20054;-57
2022/07/30 19:48:25;;;;;;;6.43;3.00;;;29.50;38.00;;;;;;21248183;27;20047;-57
2022/07/30 19:58:27;;;;;;;8.77;4.43;;;29.60;36.80;;;;;;21228135;28;20414;-55
2022/07/30 20:08:28;;;;;;;6.13;2.95;;;29.80;36.30;;;;;;21246534;28;20391;-58
2022/07/30 20:18:30;;;;;;;7.55;3.33;;;29.80;35.50;;;;;;21253680;27;20051;-58
2022/07/30 20:28:31;;;;;;;7.97;3.70;;;29.70;37.20;;;;;;21262621;27;20455;-58
2022/07/30 20:38:33;;;;;;;7.30;4.07;;;29.60;37.50;;;;;;21261034;27;20415;-57
2022/07/30 20:48:34;;;;;;;8.93;3.20;;;29.60;37.20;;;;;;21260824;27;20083;-57
2022/07/30 20:58:36;;;;;;;8.80;3.90;;;29.60;36.70;;;;;;21260301;27;20081;-56
2022/07/30 21:08:38;;;;;;;9.73;4.88;;;29.60;36.50;;;;;;21259310;27;20047;-59
2022/07/30 21:18:39;;;;;;;8.07;4.22;;;29.70;36.30;;;;;;21259800;27;20067;-56
2022/07/30 21:28:41;;;;;;;10.48;5.90;;;29.60;36.60;;;;;;21258440;27;20447;-58
2022/07/30 21:38:42;;;;;;;8.88;4.35;;;29.70;36.60;;;;;;21257489;27;20051;-58
2022/07/30 21:48:44;;;;;;;8.02;4.65;;;29.70;36.70;;;;;;21256019;27;20051;-58
2022/07/30 21:58:46;;;;;;;22.17;12.48;;;29.60;36.30;;;;;;21255841;27;20493;-58
2022/07/30 22:08:48;;;;;;;13.07;4.32;;;29.60;37.10;;;;;;21253555;27;20491;-57
2022/07/30 22:18:50;;;;;;;10.93;4.55;;;29.60;37.20;;;;;;21253059;27;20096;-57
2022/07/30 22:28:52;;;;;;;12.88;4.28;;;29.50;37.70;;;;;;21253764;27;20059;-57
2022/07/30 22:38:53;;;;;;;16.27;5.03;;;29.50;37.90;;;;;;21250606;27;20055;-56
2022/07/30 22:48:55;;;;;;;8.77;4.40;;;29.50;37.60;;;;;;21250507;27;20130;-56
2022/07/30 22:58:56;;;;;;;13.07;6.15;;;29.40;38.30;;;;;;21249644;27;20043;-56
2022/07/30 23:08:59;;;;;;;11.27;4.63;;;29.10;40.50;;;;;;21249169;27;20043;-56
2022/07/30 23:19:01;;;;;;;10.48;4.97;;;28.90;41.10;;;;;;21248390;27;20055;-57
2022/07/30 23:29:02;;;;;;;7.88;3.90;;;29.00;40.50;;;;;;21248908;27;20403;-55
2022/07/30 23:39:04;;;;;;;10.43;4.43;;;28.70;43.10;;;;;;21248164;27;20054;-56
2022/07/30 23:49:06;;;;;;;10.50;4.20;;;28.30;43.70;;;;;;21248022;27;20177;-54
2022/07/30 23:59:07;;;;;;;6.57;4.15;;;28.20;44.50;;;;;;21274914;27;20130;-56
